<?xml version="1.0" encoding="UTF-8" standalone="no" ?>
<gpx xmlns="http://www.topografix.com/GPX/1/1" xmlns:xsi="http://www.w3.org/2001/XMLSchema-instance" xsi:schemaLocation="http://www.topografix.com/GPX/1/1 http://www.topografix.com/GPX/1/1/gpx.xsd" version="1.1" creator="VisuGPX - https://www.visugpx.com">
  <metadata>
    <name>ARQUES LA SEYNE SUR MER 1497 KM</name>
    <desc><![CDATA[Rando de Arques dans le Pas de Calais jusque La Seyne sur Mer dans le Var, 1497 km]]></desc>
  </metadata>
  <trk>
    <name><![CDATA[50 - ST MONTAN LE MOURE ST MARTIN D ARDECHE 24.4 KM]]></name>
    <extensions>
      <line xmlns="http://www.topografix.com/GPX/gpx_style/0/2">
        <color>0000FF</color>
        <width>4</width>
      </line>
    </extensions>
    <trkseg>
      <trkpt lat="44.46233" lon="4.63193">
        <ele>307</ele>
        <time>2021-12-14T10:39:33+01:00</time>
      </trkpt>
      <trkpt lat="44.46268" lon="4.63044">
        <ele>299</ele>
        <time>2021-12-14T10:39:38+01:00</time>
      </trkpt>
      <trkpt lat="44.46193" lon="4.63059">
        <ele>292</ele>
        <time>2021-12-14T10:39:43+01:00</time>
      </trkpt>
      <trkpt lat="44.46106" lon="4.62974">
        <ele>285</ele>
        <time>2021-12-14T10:39:48+01:00</time>
      </trkpt>
      <trkpt lat="44.46034" lon="4.62963">
        <ele>276</ele>
        <time>2021-12-14T10:39:53+01:00</time>
      </trkpt>
      <trkpt lat="44.46005" lon="4.63011">
        <ele>272</ele>
        <time>2021-12-14T10:39:58+01:00</time>
      </trkpt>
      <trkpt lat="44.45955" lon="4.6287">
        <ele>266</ele>
        <time>2021-12-14T10:40:03+01:00</time>
      </trkpt>
      <trkpt lat="44.45846" lon="4.62818">
        <ele>258</ele>
        <time>2021-12-14T10:40:08+01:00</time>
      </trkpt>
      <trkpt lat="44.45785" lon="4.62762">
        <ele>251</ele>
        <time>2021-12-14T10:40:13+01:00</time>
      </trkpt>
      <trkpt lat="44.45719" lon="4.62784">
        <ele>251</ele>
        <time>2021-12-14T10:40:18+01:00</time>
      </trkpt>
      <trkpt lat="44.45632" lon="4.62755">
        <ele>251</ele>
        <time>2021-12-14T10:40:23+01:00</time>
      </trkpt>
      <trkpt lat="44.45541" lon="4.62684">
        <ele>246</ele>
        <time>2021-12-14T10:40:28+01:00</time>
      </trkpt>
      <trkpt lat="44.4538" lon="4.62599">
        <ele>240</ele>
        <time>2021-12-14T10:40:33+01:00</time>
      </trkpt>
      <trkpt lat="44.45274" lon="4.62588">
        <ele>233</ele>
        <time>2021-12-14T10:40:38+01:00</time>
      </trkpt>
      <trkpt lat="44.45075" lon="4.62521">
        <ele>229</ele>
        <time>2021-12-14T10:40:43+01:00</time>
      </trkpt>
      <trkpt lat="44.4499" lon="4.62521">
        <ele>229</ele>
        <time>2021-12-14T10:40:48+01:00</time>
      </trkpt>
      <trkpt lat="44.44924" lon="4.62654">
        <ele>213</ele>
        <time>2021-12-14T10:40:53+01:00</time>
      </trkpt>
      <trkpt lat="44.44828" lon="4.62706">
        <ele>202</ele>
        <time>2021-12-14T10:40:58+01:00</time>
      </trkpt>
      <trkpt lat="44.44722" lon="4.62718">
        <ele>193</ele>
        <time>2021-12-14T10:41:03+01:00</time>
      </trkpt>
      <trkpt lat="44.44444" lon="4.62584">
        <ele>166</ele>
        <time>2021-12-14T10:41:08+01:00</time>
      </trkpt>
      <trkpt lat="44.44431" lon="4.62484">
        <ele>161</ele>
        <time>2021-12-14T10:41:13+01:00</time>
      </trkpt>
      <trkpt lat="44.44264" lon="4.62409">
        <ele>134</ele>
        <time>2021-12-14T10:41:18+01:00</time>
      </trkpt>
      <trkpt lat="44.44211" lon="4.62458">
        <ele>133</ele>
        <time>2021-12-14T10:41:23+01:00</time>
      </trkpt>
      <trkpt lat="44.44155" lon="4.62454">
        <ele>125</ele>
        <time>2021-12-14T10:41:28+01:00</time>
      </trkpt>
      <trkpt lat="44.44075" lon="4.62387">
        <ele>117</ele>
        <time>2021-12-14T10:41:33+01:00</time>
      </trkpt>
      <trkpt lat="44.44032" lon="4.62389">
        <ele>116</ele>
        <time>2021-12-14T10:41:38+01:00</time>
      </trkpt>
      <trkpt lat="44.44026" lon="4.62293">
        <ele>119</ele>
        <time>2021-12-14T10:41:43+01:00</time>
      </trkpt>
      <trkpt lat="44.43988" lon="4.62364">
        <ele>116</ele>
        <time>2021-12-14T10:41:48+01:00</time>
      </trkpt>
      <trkpt lat="44.43906" lon="4.62409">
        <ele>117</ele>
        <time>2021-12-14T10:41:53+01:00</time>
      </trkpt>
      <trkpt lat="44.43858" lon="4.62473">
        <ele>113</ele>
        <time>2021-12-14T10:41:58+01:00</time>
      </trkpt>
      <trkpt lat="44.43647" lon="4.62375">
        <ele>112</ele>
        <time>2021-12-14T10:42:03+01:00</time>
      </trkpt>
      <trkpt lat="44.43388" lon="4.62114">
        <ele>116</ele>
        <time>2021-12-14T10:42:08+01:00</time>
      </trkpt>
      <trkpt lat="44.43382" lon="4.62063">
        <ele>120</ele>
        <time>2021-12-14T10:42:13+01:00</time>
      </trkpt>
      <trkpt lat="44.43328" lon="4.62083">
        <ele>110</ele>
        <time>2021-12-14T10:42:18+01:00</time>
      </trkpt>
      <trkpt lat="44.43264" lon="4.62046">
        <ele>105</ele>
        <time>2021-12-14T10:42:23+01:00</time>
      </trkpt>
      <trkpt lat="44.43113" lon="4.62097">
        <ele>96</ele>
        <time>2021-12-14T10:42:28+01:00</time>
      </trkpt>
      <trkpt lat="44.43083" lon="4.61925">
        <ele>99</ele>
        <time>2021-12-14T10:42:33+01:00</time>
      </trkpt>
      <trkpt lat="44.43089" lon="4.61824">
        <ele>98</ele>
        <time>2021-12-14T10:42:38+01:00</time>
      </trkpt>
      <trkpt lat="44.43115" lon="4.61793">
        <ele>96</ele>
        <time>2021-12-14T10:42:43+01:00</time>
      </trkpt>
      <trkpt lat="44.43003" lon="4.61681">
        <ele>108</ele>
        <time>2021-12-14T10:42:48+01:00</time>
      </trkpt>
      <trkpt lat="44.42941" lon="4.61518">
        <ele>115</ele>
        <time>2021-12-14T10:42:53+01:00</time>
      </trkpt>
      <trkpt lat="44.4284" lon="4.61473">
        <ele>123</ele>
        <time>2021-12-14T10:42:58+01:00</time>
      </trkpt>
      <trkpt lat="44.4273" lon="4.61411">
        <ele>132</ele>
        <time>2021-12-14T10:43:03+01:00</time>
      </trkpt>
      <trkpt lat="44.42732" lon="4.61318">
        <ele>138</ele>
        <time>2021-12-14T10:43:08+01:00</time>
      </trkpt>
      <trkpt lat="44.42682" lon="4.61282">
        <ele>150</ele>
        <time>2021-12-14T10:43:13+01:00</time>
      </trkpt>
      <trkpt lat="44.42646" lon="4.61181">
        <ele>160</ele>
        <time>2021-12-14T10:43:18+01:00</time>
      </trkpt>
      <trkpt lat="44.42457" lon="4.61231">
        <ele>180</ele>
        <time>2021-12-14T10:43:23+01:00</time>
      </trkpt>
      <trkpt lat="44.42401" lon="4.61184">
        <ele>193</ele>
        <time>2021-12-14T10:43:28+01:00</time>
      </trkpt>
      <trkpt lat="44.42445" lon="4.61082">
        <ele>201</ele>
        <time>2021-12-14T10:43:33+01:00</time>
      </trkpt>
      <trkpt lat="44.42423" lon="4.61054">
        <ele>210</ele>
        <time>2021-12-14T10:43:38+01:00</time>
      </trkpt>
      <trkpt lat="44.42399" lon="4.61068">
        <ele>212</ele>
        <time>2021-12-14T10:43:43+01:00</time>
      </trkpt>
      <trkpt lat="44.42359" lon="4.61029">
        <ele>223</ele>
        <time>2021-12-14T10:43:48+01:00</time>
      </trkpt>
      <trkpt lat="44.42176" lon="4.60849">
        <ele>259</ele>
        <time>2021-12-14T10:43:53+01:00</time>
      </trkpt>
      <trkpt lat="44.42164" lon="4.60796">
        <ele>263</ele>
        <time>2021-12-14T10:43:58+01:00</time>
      </trkpt>
      <trkpt lat="44.42116" lon="4.60751">
        <ele>270</ele>
        <time>2021-12-14T10:44:03+01:00</time>
      </trkpt>
      <trkpt lat="44.42108" lon="4.60703">
        <ele>273</ele>
        <time>2021-12-14T10:44:08+01:00</time>
      </trkpt>
      <trkpt lat="44.42066" lon="4.6077">
        <ele>268</ele>
        <time>2021-12-14T10:44:13+01:00</time>
      </trkpt>
      <trkpt lat="44.41992" lon="4.60638">
        <ele>284</ele>
        <time>2021-12-14T10:44:18+01:00</time>
      </trkpt>
      <trkpt lat="44.41634" lon="4.60301">
        <ele>342</ele>
        <time>2021-12-14T10:44:23+01:00</time>
      </trkpt>
      <trkpt lat="44.41448" lon="4.60116">
        <ele>344</ele>
        <time>2021-12-14T10:44:28+01:00</time>
      </trkpt>
      <trkpt lat="44.41363" lon="4.60001">
        <ele>342</ele>
        <time>2021-12-14T10:44:33+01:00</time>
      </trkpt>
      <trkpt lat="44.41311" lon="4.59883">
        <ele>347</ele>
        <time>2021-12-14T10:44:38+01:00</time>
      </trkpt>
      <trkpt lat="44.41335" lon="4.59697">
        <ele>363</ele>
        <time>2021-12-14T10:44:43+01:00</time>
      </trkpt>
      <trkpt lat="44.41349" lon="4.59652">
        <ele>365</ele>
        <time>2021-12-14T10:44:48+01:00</time>
      </trkpt>
      <trkpt lat="44.41333" lon="4.59593">
        <ele>366</ele>
        <time>2021-12-14T10:44:53+01:00</time>
      </trkpt>
      <trkpt lat="44.41165" lon="4.59568">
        <ele>366</ele>
        <time>2021-12-14T10:44:58+01:00</time>
      </trkpt>
      <trkpt lat="44.4098" lon="4.59593">
        <ele>369</ele>
        <time>2021-12-14T10:45:03+01:00</time>
      </trkpt>
      <trkpt lat="44.40829" lon="4.59545">
        <ele>369</ele>
        <time>2021-12-14T10:45:08+01:00</time>
      </trkpt>
      <trkpt lat="44.40669" lon="4.5945">
        <ele>369</ele>
        <time>2021-12-14T10:45:13+01:00</time>
      </trkpt>
      <trkpt lat="44.40482" lon="4.59388">
        <ele>378</ele>
        <time>2021-12-14T10:45:18+01:00</time>
      </trkpt>
      <trkpt lat="44.40342" lon="4.59371">
        <ele>383</ele>
        <time>2021-12-14T10:45:23+01:00</time>
      </trkpt>
      <trkpt lat="44.40133" lon="4.59312">
        <ele>388</ele>
        <time>2021-12-14T10:45:28+01:00</time>
      </trkpt>
      <trkpt lat="44.40069" lon="4.59357">
        <ele>390</ele>
        <time>2021-12-14T10:45:33+01:00</time>
      </trkpt>
      <trkpt lat="44.39952" lon="4.5934">
        <ele>395</ele>
        <time>2021-12-14T10:45:38+01:00</time>
      </trkpt>
      <trkpt lat="44.39893" lon="4.5956">
        <ele>398</ele>
        <time>2021-12-14T10:45:43+01:00</time>
      </trkpt>
      <trkpt lat="44.3954" lon="4.59127">
        <ele>393</ele>
        <time>2021-12-14T10:45:48+01:00</time>
      </trkpt>
      <trkpt lat="44.39172" lon="4.58913">
        <ele>400</ele>
        <time>2021-12-14T10:45:53+01:00</time>
      </trkpt>
      <trkpt lat="44.38883" lon="4.58904">
        <ele>410</ele>
        <time>2021-12-14T10:45:58+01:00</time>
      </trkpt>
      <trkpt lat="44.38546" lon="4.58681">
        <ele>394</ele>
        <time>2021-12-14T10:46:03+01:00</time>
      </trkpt>
      <trkpt lat="44.38479" lon="4.59162">
        <ele>389</ele>
        <time>2021-12-14T10:46:08+01:00</time>
      </trkpt>
      <trkpt lat="44.38068" lon="4.59531">
        <ele>366</ele>
        <time>2021-12-14T10:46:13+01:00</time>
      </trkpt>
      <trkpt lat="44.37859" lon="4.59926">
        <ele>330</ele>
        <time>2021-12-14T10:46:18+01:00</time>
      </trkpt>
      <trkpt lat="44.37491" lon="4.60072">
        <ele>298</ele>
        <time>2021-12-14T10:46:23+01:00</time>
      </trkpt>
      <trkpt lat="44.3708" lon="4.60372">
        <ele>262</ele>
        <time>2021-12-14T10:46:28+01:00</time>
      </trkpt>
      <trkpt lat="44.36859" lon="4.60209">
        <ele>253</ele>
        <time>2021-12-14T10:46:33+01:00</time>
      </trkpt>
      <trkpt lat="44.36448" lon="4.60149">
        <ele>225</ele>
        <time>2021-12-14T10:46:38+01:00</time>
      </trkpt>
      <trkpt lat="44.36239" lon="4.60209">
        <ele>210</ele>
        <time>2021-12-14T10:46:43+01:00</time>
      </trkpt>
      <trkpt lat="44.36018" lon="4.60544">
        <ele>195</ele>
        <time>2021-12-14T10:46:48+01:00</time>
      </trkpt>
      <trkpt lat="44.35889" lon="4.60441">
        <ele>194</ele>
        <time>2021-12-14T10:46:53+01:00</time>
      </trkpt>
      <trkpt lat="44.35693" lon="4.60595">
        <ele>183</ele>
        <time>2021-12-14T10:46:58+01:00</time>
      </trkpt>
      <trkpt lat="44.35251" lon="4.60518">
        <ele>152</ele>
        <time>2021-12-14T10:47:03+01:00</time>
      </trkpt>
      <trkpt lat="44.34865" lon="4.60827">
        <ele>131</ele>
        <time>2021-12-14T10:47:08+01:00</time>
      </trkpt>
      <trkpt lat="44.34895" lon="4.60947">
        <ele>130</ele>
        <time>2021-12-14T10:47:13+01:00</time>
      </trkpt>
      <trkpt lat="44.34552" lon="4.6081">
        <ele>140</ele>
        <time>2021-12-14T10:47:18+01:00</time>
      </trkpt>
      <trkpt lat="44.33975" lon="4.6081">
        <ele>155</ele>
        <time>2021-12-14T10:47:23+01:00</time>
      </trkpt>
      <trkpt lat="44.33876" lon="4.60904">
        <ele>156</ele>
        <time>2021-12-14T10:47:28+01:00</time>
      </trkpt>
      <trkpt lat="44.33631" lon="4.60718">
        <ele>140</ele>
        <time>2021-12-14T10:47:33+01:00</time>
      </trkpt>
      <trkpt lat="44.33495" lon="4.60653">
        <ele>138</ele>
        <time>2021-12-14T10:47:38+01:00</time>
      </trkpt>
      <trkpt lat="44.33464" lon="4.60704">
        <ele>138</ele>
        <time>2021-12-14T10:47:43+01:00</time>
      </trkpt>
      <trkpt lat="44.33388" lon="4.60807">
        <ele>142</ele>
        <time>2021-12-14T10:47:48+01:00</time>
      </trkpt>
      <trkpt lat="44.33347" lon="4.60843">
        <ele>148</ele>
        <time>2021-12-14T10:47:53+01:00</time>
      </trkpt>
      <trkpt lat="44.33272" lon="4.60884">
        <ele>154</ele>
        <time>2021-12-14T10:47:58+01:00</time>
      </trkpt>
      <trkpt lat="44.33254" lon="4.60929">
        <ele>161</ele>
        <time>2021-12-14T10:48:03+01:00</time>
      </trkpt>
      <trkpt lat="44.33201" lon="4.60955">
        <ele>166</ele>
        <time>2021-12-14T10:48:08+01:00</time>
      </trkpt>
      <trkpt lat="44.33182" lon="4.60909">
        <ele>162</ele>
        <time>2021-12-14T10:48:13+01:00</time>
      </trkpt>
      <trkpt lat="44.33145" lon="4.60895">
        <ele>162</ele>
        <time>2021-12-14T10:48:18+01:00</time>
      </trkpt>
      <trkpt lat="44.331" lon="4.60896">
        <ele>164</ele>
        <time>2021-12-14T10:48:23+01:00</time>
      </trkpt>
      <trkpt lat="44.33044" lon="4.60861">
        <ele>162</ele>
        <time>2021-12-14T10:48:28+01:00</time>
      </trkpt>
      <trkpt lat="44.32984" lon="4.60811">
        <ele>160</ele>
        <time>2021-12-14T10:48:33+01:00</time>
      </trkpt>
      <trkpt lat="44.32945" lon="4.60806">
        <ele>163</ele>
        <time>2021-12-14T10:48:38+01:00</time>
      </trkpt>
      <trkpt lat="44.32903" lon="4.60741">
        <ele>163</ele>
        <time>2021-12-14T10:48:43+01:00</time>
      </trkpt>
      <trkpt lat="44.32837" lon="4.60715">
        <ele>163</ele>
        <time>2021-12-14T10:48:48+01:00</time>
      </trkpt>
      <trkpt lat="44.32757" lon="4.60721">
        <ele>161</ele>
        <time>2021-12-14T10:48:53+01:00</time>
      </trkpt>
      <trkpt lat="44.32594" lon="4.60661">
        <ele>161</ele>
        <time>2021-12-14T10:48:58+01:00</time>
      </trkpt>
      <trkpt lat="44.32441" lon="4.6061">
        <ele>162</ele>
        <time>2021-12-14T10:49:03+01:00</time>
      </trkpt>
      <trkpt lat="44.32352" lon="4.60567">
        <ele>165</ele>
        <time>2021-12-14T10:49:08+01:00</time>
      </trkpt>
      <trkpt lat="44.32234" lon="4.60435">
        <ele>160</ele>
        <time>2021-12-14T10:49:13+01:00</time>
      </trkpt>
      <trkpt lat="44.32166" lon="4.60373">
        <ele>161</ele>
        <time>2021-12-14T10:49:18+01:00</time>
      </trkpt>
      <trkpt lat="44.32148" lon="4.60322">
        <ele>157</ele>
        <time>2021-12-14T10:49:23+01:00</time>
      </trkpt>
      <trkpt lat="44.32099" lon="4.60278">
        <ele>154</ele>
        <time>2021-12-14T10:49:28+01:00</time>
      </trkpt>
      <trkpt lat="44.32053" lon="4.60147">
        <ele>142</ele>
        <time>2021-12-14T10:49:33+01:00</time>
      </trkpt>
      <trkpt lat="44.31972" lon="4.59964">
        <ele>123</ele>
        <time>2021-12-14T10:49:38+01:00</time>
      </trkpt>
      <trkpt lat="44.31977" lon="4.59917">
        <ele>116</ele>
        <time>2021-12-14T10:49:43+01:00</time>
      </trkpt>
      <trkpt lat="44.31807" lon="4.59796">
        <ele>111</ele>
        <time>2021-12-14T10:49:48+01:00</time>
      </trkpt>
      <trkpt lat="44.31848" lon="4.59716">
        <ele>101</ele>
        <time>2021-12-14T10:49:53+01:00</time>
      </trkpt>
      <trkpt lat="44.31756" lon="4.59489">
        <ele>89</ele>
        <time>2021-12-14T10:49:58+01:00</time>
      </trkpt>
      <trkpt lat="44.31754" lon="4.59249">
        <ele>101</ele>
        <time>2021-12-14T10:50:03+01:00</time>
      </trkpt>
      <trkpt lat="44.31721" lon="4.59066">
        <ele>113</ele>
        <time>2021-12-14T10:50:08+01:00</time>
      </trkpt>
      <trkpt lat="44.31696" lon="4.59007">
        <ele>109</ele>
        <time>2021-12-14T10:50:13+01:00</time>
      </trkpt>
      <trkpt lat="44.31733" lon="4.58963">
        <ele>111</ele>
        <time>2021-12-14T10:50:18+01:00</time>
      </trkpt>
      <trkpt lat="44.31731" lon="4.58856">
        <ele>109</ele>
        <time>2021-12-14T10:50:23+01:00</time>
      </trkpt>
      <trkpt lat="44.317" lon="4.58819">
        <ele>108</ele>
        <time>2021-12-14T10:50:28+01:00</time>
      </trkpt>
      <trkpt lat="44.31682" lon="4.58749">
        <ele>113</ele>
        <time>2021-12-14T10:50:33+01:00</time>
      </trkpt>
      <trkpt lat="44.31631" lon="4.58659">
        <ele>125</ele>
        <time>2021-12-14T10:50:38+01:00</time>
      </trkpt>
      <trkpt lat="44.31533" lon="4.58619">
        <ele>126</ele>
        <time>2021-12-14T10:50:43+01:00</time>
      </trkpt>
      <trkpt lat="44.3144" lon="4.58462">
        <ele>142</ele>
        <time>2021-12-14T10:50:48+01:00</time>
      </trkpt>
      <trkpt lat="44.31395" lon="4.58368">
        <ele>148</ele>
        <time>2021-12-14T10:50:53+01:00</time>
      </trkpt>
      <trkpt lat="44.31308" lon="4.58143">
        <ele>158</ele>
        <time>2021-12-14T10:50:58+01:00</time>
      </trkpt>
      <trkpt lat="44.31312" lon="4.58031">
        <ele>159</ele>
        <time>2021-12-14T10:51:03+01:00</time>
      </trkpt>
      <trkpt lat="44.31166" lon="4.58048">
        <ele>144</ele>
        <time>2021-12-14T10:51:08+01:00</time>
      </trkpt>
      <trkpt lat="44.31122" lon="4.58115">
        <ele>142</ele>
        <time>2021-12-14T10:51:13+01:00</time>
      </trkpt>
      <trkpt lat="44.31091" lon="4.58103">
        <ele>140</ele>
        <time>2021-12-14T10:51:18+01:00</time>
      </trkpt>
      <trkpt lat="44.31091" lon="4.58067">
        <ele>139</ele>
        <time>2021-12-14T10:51:23+01:00</time>
      </trkpt>
      <trkpt lat="44.31162" lon="4.57935">
        <ele>133</ele>
        <time>2021-12-14T10:51:28+01:00</time>
      </trkpt>
      <trkpt lat="44.31185" lon="4.57757">
        <ele>122</ele>
        <time>2021-12-14T10:51:33+01:00</time>
      </trkpt>
      <trkpt lat="44.31164" lon="4.57735">
        <ele>121</ele>
        <time>2021-12-14T10:51:38+01:00</time>
      </trkpt>
      <trkpt lat="44.31047" lon="4.57727">
        <ele>113</ele>
        <time>2021-12-14T10:51:43+01:00</time>
      </trkpt>
      <trkpt lat="44.31012" lon="4.57738">
        <ele>112</ele>
        <time>2021-12-14T10:51:48+01:00</time>
      </trkpt>
      <trkpt lat="44.30977" lon="4.57715">
        <ele>110</ele>
        <time>2021-12-14T10:51:53+01:00</time>
      </trkpt>
      <trkpt lat="44.30966" lon="4.5767">
        <ele>109</ele>
        <time>2021-12-14T10:51:58+01:00</time>
      </trkpt>
      <trkpt lat="44.30914" lon="4.5763">
        <ele>112</ele>
        <time>2021-12-14T10:52:03+01:00</time>
      </trkpt>
      <trkpt lat="44.30884" lon="4.5762">
        <ele>112</ele>
        <time>2021-12-14T10:52:08+01:00</time>
      </trkpt>
      <trkpt lat="44.30853" lon="4.5757">
        <ele>114</ele>
        <time>2021-12-14T10:52:13+01:00</time>
      </trkpt>
      <trkpt lat="44.30805" lon="4.57528">
        <ele>113</ele>
        <time>2021-12-14T10:52:18+01:00</time>
      </trkpt>
      <trkpt lat="44.30768" lon="4.57481">
        <ele>113</ele>
        <time>2021-12-14T10:52:23+01:00</time>
      </trkpt>
      <trkpt lat="44.3074" lon="4.57415">
        <ele>113</ele>
        <time>2021-12-14T10:52:28+01:00</time>
      </trkpt>
      <trkpt lat="44.30701" lon="4.57383">
        <ele>112</ele>
        <time>2021-12-14T10:52:33+01:00</time>
      </trkpt>
      <trkpt lat="44.30673" lon="4.57341">
        <ele>111</ele>
        <time>2021-12-14T10:52:38+01:00</time>
      </trkpt>
      <trkpt lat="44.30621" lon="4.57323">
        <ele>108</ele>
        <time>2021-12-14T10:52:43+01:00</time>
      </trkpt>
      <trkpt lat="44.30596" lon="4.57251">
        <ele>111</ele>
        <time>2021-12-14T10:52:48+01:00</time>
      </trkpt>
      <trkpt lat="44.30594" lon="4.57113">
        <ele>112</ele>
        <time>2021-12-14T10:52:53+01:00</time>
      </trkpt>
      <trkpt lat="44.30605" lon="4.56937">
        <ele>106</ele>
        <time>2021-12-14T10:52:58+01:00</time>
      </trkpt>
      <trkpt lat="44.3062" lon="4.56881">
        <ele>98</ele>
        <time>2021-12-14T10:53:03+01:00</time>
      </trkpt>
      <trkpt lat="44.30655" lon="4.56855">
        <ele>95</ele>
        <time>2021-12-14T10:53:08+01:00</time>
      </trkpt>
      <trkpt lat="44.30673" lon="4.56821">
        <ele>93</ele>
        <time>2021-12-14T10:53:13+01:00</time>
      </trkpt>
      <trkpt lat="44.30625" lon="4.56769">
        <ele>90</ele>
        <time>2021-12-14T10:53:18+01:00</time>
      </trkpt>
      <trkpt lat="44.30605" lon="4.56763">
        <ele>87</ele>
        <time>2021-12-14T10:53:23+01:00</time>
      </trkpt>
      <trkpt lat="44.30593" lon="4.56725">
        <ele>84</ele>
        <time>2021-12-14T10:53:28+01:00</time>
      </trkpt>
      <trkpt lat="44.30554" lon="4.56724">
        <ele>79</ele>
        <time>2021-12-14T10:53:33+01:00</time>
      </trkpt>
      <trkpt lat="44.30511" lon="4.56713">
        <ele>74</ele>
        <time>2021-12-14T10:53:38+01:00</time>
      </trkpt>
      <trkpt lat="44.30436" lon="4.56716">
        <ele>69</ele>
        <time>2021-12-14T10:53:43+01:00</time>
      </trkpt>
      <trkpt lat="44.30403" lon="4.56726">
        <ele>67</ele>
        <time>2021-12-14T10:53:48+01:00</time>
      </trkpt>
      <trkpt lat="44.30384" lon="4.56705">
        <ele>65</ele>
        <time>2021-12-14T10:53:53+01:00</time>
      </trkpt>
      <trkpt lat="44.30343" lon="4.5674">
        <ele>62</ele>
        <time>2021-12-14T10:53:58+01:00</time>
      </trkpt>
      <trkpt lat="44.30294" lon="4.56754">
        <ele>61</ele>
        <time>2021-12-14T10:54:03+01:00</time>
      </trkpt>
      <trkpt lat="44.30264" lon="4.56715">
        <ele>59</ele>
        <time>2021-12-14T10:54:08+01:00</time>
      </trkpt>
      <trkpt lat="44.30233" lon="4.56694">
        <ele>58</ele>
        <time>2021-12-14T10:54:13+01:00</time>
      </trkpt>
      <trkpt lat="44.30223" lon="4.56646">
        <ele>57</ele>
        <time>2021-12-14T10:54:18+01:00</time>
      </trkpt>
      <trkpt lat="44.30193" lon="4.56622">
        <ele>56</ele>
        <time>2021-12-14T10:54:23+01:00</time>
      </trkpt>
      <trkpt lat="44.30168" lon="4.56623">
        <ele>55</ele>
        <time>2021-12-14T10:54:28+01:00</time>
      </trkpt>
      <trkpt lat="44.30141" lon="4.56617">
        <ele>53</ele>
        <time>2021-12-14T10:54:33+01:00</time>
      </trkpt>
      <trkpt lat="44.30095" lon="4.56755">
        <ele>55</ele>
        <time>2021-12-14T10:54:38+01:00</time>
      </trkpt>
    </trkseg>
  </trk>
</gpx>